createdAt,value
2023-04-15T00:02:23.052Z,7.53
2023-04-15T00:07:24.065Z,7.78
2023-04-15T00:12:26.957Z,5.57
2023-04-15T00:17:27.844Z,4.90
2023-04-15T00:22:28.677Z,6.93
2023-04-15T00:27:29.778Z,4.30
2023-04-15T00:32:30.549Z,4.55
2023-04-15T00:37:31.409Z,5.20
2023-04-15T00:42:32.425Z,4.97
2023-04-15T00:47:34.771Z,3.60
2023-04-15T00:52:35.587Z,4.70
2023-04-15T00:57:38.326Z,4.78
2023-04-15T01:02:39.390Z,4.53
2023-04-15T01:07:40.727Z,4.82
2023-04-15T01:12:41.773Z,7.65
2023-04-15T01:17:42.760Z,5.35
2023-04-15T01:22:44.532Z,5.47
2023-04-15T01:27:45.690Z,7.60
2023-04-15T01:32:46.677Z,6.72
2023-04-15T01:37:48.616Z,2.50
2023-04-15T01:42:51.187Z,3.83
2023-04-15T01:47:52.052Z,3.22
2023-04-15T01:52:52.907Z,3.45
2023-04-15T01:57:54.218Z,4.78
2023-04-15T02:02:55.240Z,3.78
2023-04-15T02:07:59.170Z,6.45
2023-04-15T02:13:00.387Z,5.15
2023-04-15T02:18:02.324Z,2.08
2023-04-15T02:23:06.496Z,1.83
2023-04-15T02:28:07.279Z,7.82
2023-04-15T02:33:08.445Z,5.87
2023-04-15T02:38:09.936Z,5.22
2023-04-15T02:43:10.782Z,7.47
2023-04-15T02:48:12.866Z,4.68
2023-04-15T02:53:13.871Z,8.63
2023-04-15T02:58:14.746Z,5.40
2023-04-15T03:03:15.742Z,6.93
2023-04-15T03:08:16.842Z,5.22
2023-04-15T03:13:18.206Z,4.87
2023-04-15T03:18:19.461Z,7.12
2023-04-15T03:23:20.515Z,6.70
2023-04-15T03:28:22.920Z,7.57
2023-04-15T03:33:24.111Z,7.45
2023-04-15T03:38:25.277Z,4.72
2023-04-15T03:43:26.382Z,5.35
2023-04-15T03:48:28.097Z,6.18
2023-04-15T03:53:28.827Z,6.28
2023-04-15T03:58:30.310Z,5.75
2023-04-15T04:03:31.159Z,5.55
2023-04-15T04:08:32.105Z,5.60
2023-04-15T04:13:32.843Z,7.03
2023-04-15T04:18:33.678Z,6.40
2023-04-15T04:23:34.790Z,4.03
2023-04-15T04:28:35.796Z,2.62
2023-04-15T04:33:36.968Z,4.75
2023-04-15T04:38:37.857Z,5.25
2023-04-15T04:43:38.634Z,4.10
2023-04-15T04:48:39.863Z,5.72
2023-04-15T04:53:42.230Z,4.12
2023-04-15T04:58:43.031Z,3.90
2023-04-15T05:03:44.098Z,5.78
2023-04-15T05:08:46.289Z,5.55
2023-04-15T05:13:47.108Z,3.95
2023-04-15T05:18:47.924Z,8.05
2023-04-15T05:23:48.709Z,4.00
2023-04-15T05:28:49.723Z,4.75
2023-04-15T05:33:50.601Z,4.97
2023-04-15T05:38:51.518Z,2.70
2023-04-15T05:43:52.307Z,5.68
2023-04-15T05:48:54.693Z,6.75
2023-04-15T05:53:56.899Z,4.35
2023-04-15T05:58:57.684Z,5.18
2023-04-15T06:03:58.866Z,6.18
2023-04-15T06:09:00.126Z,9.10
2023-04-15T06:14:01.422Z,20.85
2023-04-15T06:19:02.972Z,8.93
2023-04-15T06:24:04.095Z,8.48
2023-04-15T06:29:04.981Z,8.07
2023-04-15T06:34:05.876Z,18.62
2023-04-15T06:39:06.928Z,13.57
2023-04-15T06:44:07.977Z,12.32
2023-04-15T06:49:08.816Z,15.98
2023-04-15T06:54:09.992Z,9.13
2023-04-15T06:59:10.824Z,5.32
2023-04-15T07:04:12.172Z,6.10
2023-04-15T07:09:14.122Z,6.35
2023-04-15T07:14:15.237Z,7.65
2023-04-15T07:19:16.610Z,6.95
2023-04-15T07:24:19.333Z,6.40
2023-04-15T07:29:20.532Z,5.62
2023-04-15T07:34:21.338Z,4.43
2023-04-15T07:39:22.470Z,7.60
2023-04-15T07:44:23.423Z,5.35
2023-04-15T07:49:24.197Z,6.80
2023-04-15T07:54:25.069Z,8.32
2023-04-15T07:59:27.125Z,6.65
2023-04-15T08:04:28.112Z,7.47
2023-04-15T08:09:29.849Z,6.30
2023-04-15T08:14:31.033Z,5.05
2023-04-15T08:19:32.124Z,4.72
2023-04-15T08:24:33.038Z,4.37
2023-04-15T08:29:33.989Z,7.82
2023-04-15T08:34:34.860Z,5.70
2023-04-15T08:39:35.878Z,6.78
2023-04-15T08:44:37.478Z,6.93
2023-04-15T08:49:42.329Z,5.95
2023-04-15T08:54:43.210Z,8.00
2023-04-15T08:59:44.547Z,7.07
2023-04-15T09:04:45.458Z,9.15
2023-04-15T09:09:48.021Z,4.72
2023-04-15T09:14:49.213Z,9.97
2023-04-15T09:20:08.060Z,11.32
2023-04-15T09:25:42.295Z,5.68
2023-04-15T09:30:48.667Z,7.05
2023-04-15T09:36:01.473Z,6.28
2023-04-15T09:41:02.427Z,11.05
2023-04-15T09:46:03.307Z,7.70
2023-04-15T09:51:04.821Z,6.45
2023-04-15T09:56:08.169Z,11.98
2023-04-15T10:01:09.394Z,7.25
2023-04-15T10:06:10.701Z,6.95
2023-04-15T10:11:12.035Z,5.53
2023-04-15T10:16:15.312Z,7.32
2023-04-15T10:21:17.936Z,4.87
2023-04-15T10:26:19.414Z,7.97
2023-04-15T10:31:20.859Z,7.75
2023-04-15T10:36:21.778Z,5.07
2023-04-15T10:41:30.267Z,5.37
2023-04-15T10:46:42.627Z,5.30
2023-04-15T10:51:45.665Z,6.00
2023-04-15T11:01:53.807Z,4.12
2023-04-15T11:07:05.943Z,3.10
2023-04-15T11:12:09.029Z,4.50
2023-04-15T11:17:09.929Z,3.40
2023-04-15T11:22:11.893Z,5.75
2023-04-15T11:27:23.203Z,4.15
2023-04-15T11:32:24.091Z,3.75
2023-04-15T11:37:29.581Z,3.62
2023-04-15T11:42:42.797Z,3.80
2023-04-15T11:47:49.824Z,4.00
2023-04-15T11:52:58.916Z,2.17
2023-04-15T11:58:30.933Z,4.03
2023-04-15T12:03:40.635Z,5.00
2023-04-15T12:09:32.490Z,4.18
2023-04-15T12:14:33.542Z,2.58
2023-04-15T12:19:41.483Z,2.17
2023-04-15T12:24:46.427Z,3.25
2023-04-15T12:29:47.204Z,1.75
2023-04-15T12:34:53.467Z,2.78
2023-04-15T12:39:54.576Z,2.35
2023-04-15T12:44:56.111Z,2.95
2023-04-15T12:49:56.883Z,1.10
2023-04-15T12:54:57.638Z,1.45
2023-04-15T12:59:58.413Z,2.97
2023-04-15T13:04:59.231Z,2.35
2023-04-15T13:10:00.372Z,1.12
2023-04-15T13:15:05.719Z,4.03
2023-04-15T13:20:08.086Z,1.60
2023-04-15T13:25:09.627Z,1.05
2023-04-15T13:30:11.301Z,5.68
2023-04-15T13:35:12.057Z,3.78
2023-04-15T13:40:12.855Z,2.83
2023-04-15T13:45:13.712Z,2.12
2023-04-15T13:50:14.549Z,2.55
2023-04-15T13:55:20.293Z,2.40
2023-04-15T14:00:22.187Z,2.58
2023-04-15T14:05:23.162Z,2.08
2023-04-15T14:10:23.925Z,3.30
2023-04-15T14:15:24.824Z,6.10
2023-04-15T14:20:25.582Z,2.72
2023-04-15T14:25:33.223Z,2.33
2023-04-15T14:30:35.470Z,3.75
2023-04-15T14:35:37.111Z,5.10
2023-04-15T14:40:38.235Z,4.30
2023-04-15T14:45:41.889Z,5.60
2023-04-15T14:50:45.245Z,3.67
2023-04-15T14:55:46.055Z,3.40
2023-04-15T15:00:47.392Z,4.22
2023-04-15T15:05:48.272Z,5.37
2023-04-15T15:10:49.995Z,4.20
2023-04-15T15:15:52.081Z,5.12
2023-04-15T15:20:52.873Z,5.57
2023-04-15T15:25:54.014Z,6.65
2023-04-15T15:30:55.091Z,9.20
2023-04-15T15:35:58.003Z,7.03
2023-04-15T15:40:58.769Z,6.37
2023-04-15T15:46:00.415Z,9.07
2023-04-15T15:51:01.194Z,7.25
2023-04-15T15:56:03.354Z,7.82
2023-04-15T16:01:05.060Z,10.43
2023-04-15T16:06:05.880Z,6.53
2023-04-15T16:11:06.734Z,6.45
2023-04-15T16:16:07.801Z,6.70
2023-04-15T16:21:08.672Z,7.72
2023-04-15T16:26:09.438Z,7.65
2023-04-15T16:31:11.245Z,10.15
2023-04-15T16:36:12.447Z,10.02
2023-04-15T16:41:14.685Z,10.60
2023-04-15T16:46:15.684Z,9.37
2023-04-15T16:51:16.599Z,10.63
2023-04-15T16:56:17.514Z,8.82
2023-04-15T17:01:19.749Z,11.27
2023-04-15T17:06:20.662Z,9.32
2023-04-15T17:11:21.483Z,10.82
2023-04-15T17:16:22.617Z,9.20
2023-04-15T17:21:24.957Z,10.00
2023-04-15T17:26:25.797Z,17.27
2023-04-15T17:31:28.961Z,16.80
2023-04-15T17:36:30.119Z,20.60
2023-04-15T17:41:30.898Z,19.80
2023-04-15T17:46:32.008Z,19.85
2023-04-15T17:51:32.853Z,18.23
2023-04-15T17:56:40.682Z,17.10
2023-04-15T18:01:47.430Z,17.70
2023-04-15T18:06:48.383Z,18.98
2023-04-15T18:11:51.796Z,19.90
2023-04-15T18:16:52.723Z,18.60
2023-04-15T18:21:54.051Z,20.35
2023-04-15T18:26:58.383Z,17.25
2023-04-15T18:32:02.043Z,13.88
2023-04-15T18:37:04.493Z,14.13
2023-04-15T18:42:05.417Z,12.97
2023-04-15T18:47:06.707Z,12.75
2023-04-15T18:52:09.263Z,10.27
2023-04-15T18:57:10.548Z,15.97
2023-04-15T19:02:11.363Z,9.10
2023-04-15T19:07:12.188Z,11.75
2023-04-15T19:12:13.021Z,8.48
2023-04-15T19:17:14.569Z,8.85
2023-04-15T19:22:16.430Z,11.75
2023-04-15T19:27:17.324Z,10.13
2023-04-15T19:32:18.192Z,14.15
2023-04-15T19:37:19.172Z,8.68
2023-04-15T19:42:19.998Z,9.07
2023-04-15T19:47:21.833Z,10.73
2023-04-15T19:52:23.106Z,10.23
2023-04-15T19:57:24.208Z,11.55
2023-04-15T20:02:25.370Z,8.73
2023-04-15T20:07:26.556Z,11.90
2023-04-15T20:12:49.773Z,11.98
2023-04-15T20:17:53.950Z,12.30
2023-04-15T20:22:54.739Z,12.50
2023-04-15T20:27:59.062Z,15.65
2023-04-15T20:33:01.795Z,15.77
2023-04-15T20:38:03.641Z,19.05
2023-04-15T20:43:04.705Z,18.35
2023-04-15T20:48:05.933Z,19.40
2023-04-15T20:53:07.091Z,18.60
2023-04-15T20:58:07.874Z,19.87
2023-04-15T21:03:08.791Z,21.85
2023-04-15T21:08:09.635Z,19.73
2023-04-15T21:13:12.292Z,21.85
2023-04-15T21:18:13.176Z,23.33
2023-04-15T21:23:13.926Z,23.77
2023-04-15T21:28:14.718Z,25.10
2023-04-15T21:33:16.125Z,26.60
2023-04-15T21:38:16.913Z,32.28
2023-04-15T21:43:18.676Z,29.20
2023-04-15T21:48:20.317Z,32.20
2023-04-15T21:53:21.122Z,34.47
2023-04-15T21:58:21.976Z,32.03
2023-04-15T22:03:23.442Z,30.15
2023-04-15T22:08:24.519Z,28.90
2023-04-15T22:13:25.271Z,24.12
2023-04-15T22:18:26.213Z,26.25
2023-04-15T22:23:26.946Z,27.40
2023-04-15T22:28:27.724Z,24.42
2023-04-15T22:33:28.626Z,23.30
2023-04-15T22:38:29.698Z,23.92
2023-04-15T22:43:30.436Z,21.77
2023-04-15T22:48:31.611Z,20.42
2023-04-15T22:53:32.413Z,22.73
2023-04-15T22:58:33.526Z,21.65
2023-04-15T23:03:34.554Z,20.62
2023-04-15T23:08:56.865Z,22.00
2023-04-15T23:13:57.648Z,18.52
2023-04-15T23:18:58.569Z,20.88
2023-04-15T23:23:59.455Z,20.85
2023-04-15T23:29:00.240Z,22.83
2023-04-15T23:34:02.364Z,21.50
2023-04-15T23:39:03.261Z,19.65
2023-04-15T23:44:04.372Z,22.27
2023-04-15T23:49:05.202Z,23.20
2023-04-15T23:54:06.067Z,25.65
2023-04-15T23:59:07.042Z,23.30
